Time;durP1;ratioP1;P1;durP2;ratioP2;P2;SDS_P1;SDS_P2;PMS_P1;PMS_P2;Temp;Humidity;BMP_temperature;BMP_pressure;BME280_temperature;BME280_humidity;BME280_pressure;Samples;Min_cycle;Max_cycle;Signal;HPM_P1;HPM_P2
2021/01/03 00:02:43;;;;;;;31.87;16.10;;;;;;;;;;4986444;28;20545;-86
2021/01/03 00:05:47;;;;;;;28.40;14.90;;;;;;;;;;5004586;28;20595;-85
2021/01/03 00:08:51;;;;;;;26.97;14.90;;;;;;;;;;4969996;28;20656;-85
2021/01/03 00:11:56;;;;;;;29.70;14.47;;;;;;;;;;4978544;28;20599;-83
2021/01/03 00:15:03;;;;;;;30.70;15.73;;;;;;;;;;4982502;28;20631;-84
2021/01/03 00:18:07;;;;;;;33.93;15.00;;;;;;;;;;4994875;28;20627;-85
2021/01/03 00:21:11;;;;;;;28.73;15.07;;;;;;;;;;4996753;28;21182;-85
2021/01/03 00:24:15;;;;;;;30.40;15.10;;;;;;;;;;5007344;28;21180;-85
2021/01/03 00:27:20;;;;;;;24.63;14.63;;;;;;;;;;4982177;28;20615;-84
2021/01/03 00:30:26;;;;;;;31.27;16.90;;;;;;;;;;5004338;28;20607;-86
2021/01/03 00:33:30;;;;;;;29.13;15.00;;;;;;;;;;4992540;28;20596;-85
2021/01/03 00:36:35;;;;;;;33.00;15.83;;;;;;;;;;4987496;28;20591;-83
2021/01/03 00:39:39;;;;;;;31.57;15.27;;;;;;;;;;5004153;28;21188;-87
2021/01/03 00:42:43;;;;;;;30.20;16.07;;;;;;;;;;4993440;28;20552;-84
2021/01/03 00:45:47;;;;;;;30.87;16.23;;;;;;;;;;4985242;28;21204;-83
2021/01/03 00:48:51;;;;;;;30.17;15.30;;;;;;;;;;4983258;28;20659;-85
2021/01/03 00:51:55;;;;;;;29.97;15.07;;;;;;;;;;4993627;28;20600;-85
2021/01/03 00:55:00;;;;;;;34.37;16.13;;;;;;;;;;5000065;28;20640;-85
2021/01/03 00:58:05;;;;;;;33.07;15.73;;;;;;;;;;4996419;28;20636;-84
2021/01/03 01:01:09;;;;;;;32.73;16.53;;;;;;;;;;4974731;28;20596;-83
2021/01/03 01:04:13;;;;;;;31.43;16.30;;;;;;;;;;5001133;28;20591;-85
2021/01/03 01:07:18;;;;;;;34.30;16.13;;;;;;;;;;4973852;28;20629;-84
2021/01/03 01:10:27;;;;;;;33.73;16.67;;;;;;;;;;4985400;28;20616;-83
2021/01/03 01:13:32;;;;;;;31.97;16.60;;;;;;;;;;4990702;28;21172;-83
2021/01/03 01:16:37;;;;;;;32.17;16.63;;;;;;;;;;5015641;28;20616;-87
2021/01/03 01:19:41;;;;;;;37.77;17.00;;;;;;;;;;4983186;28;20981;-84
2021/01/03 01:22:46;;;;;;;34.83;18.10;;;;;;;;;;4997578;28;20597;-85
2021/01/03 01:25:50;;;;;;;36.50;17.47;;;;;;;;;;4985223;28;20549;-87
2021/01/03 01:28:54;;;;;;;34.23;17.87;;;;;;;;;;4985223;28;21264;-85
2021/01/03 01:32:00;;;;;;;35.20;17.27;;;;;;;;;;4995152;28;20958;-86
2021/01/03 01:35:07;;;;;;;32.87;17.17;;;;;;;;;;4998456;28;20643;-84
2021/01/03 01:38:11;;;;;;;34.50;16.97;;;;;;;;;;4992115;28;21224;-84
2021/01/03 01:41:15;;;;;;;40.10;17.97;;;;;;;;;;4981322;28;20615;-85
2021/01/03 01:44:20;;;;;;;38.03;17.30;;;;;;;;;;5003020;28;20592;-84
2021/01/03 01:47:27;;;;;;;38.97;17.80;;;;;;;;;;4993429;28;20623;-84
2021/01/03 01:50:37;;;;;;;33.67;17.07;;;;;;;;;;4984323;28;20589;-86
2021/01/03 01:54:00;;;;;;;35.07;17.57;;;;;;;;;;4985569;28;20624;-86
2021/01/03 01:57:16;;;;;;;40.63;18.37;;;;;;;;;;4996696;28;20596;-86
2021/01/03 02:00:25;;;;;;;36.63;18.03;;;;;;;;;;4991281;28;20615;-85
2021/01/03 02:03:31;;;;;;;40.20;18.63;;;;;;;;;;5002511;28;20652;-86
2021/01/03 02:06:41;;;;;;;35.53;17.60;;;;;;;;;;4972733;28;20601;-83
2021/01/03 02:09:57;;;;;;;35.40;17.47;;;;;;;;;;4983777;28;20601;-87
2021/01/03 02:13:27;;;;;;;35.20;18.80;;;;;;;;;;4984233;28;20549;-86
2021/01/03 02:16:34;;;;;;;37.30;18.07;;;;;;;;;;4999362;28;20591;-86
2021/01/03 02:19:38;;;;;;;38.17;18.97;;;;;;;;;;4992763;28;20567;-86
2021/01/03 02:22:50;;;;;;;36.17;17.90;;;;;;;;;;5016992;28;20603;-87
2021/01/03 02:25:55;;;;;;;34.73;17.63;;;;;;;;;;5013887;28;21173;-84
2021/01/03 02:29:00;;;;;;;37.40;18.37;;;;;;;;;;5016045;28;20690;-87
2021/01/03 02:32:05;;;;;;;33.93;16.33;;;;;;;;;;4973323;28;20603;-87
2021/01/03 02:35:12;;;;;;;30.83;16.17;;;;;;;;;;4979755;28;20767;-87
2021/01/03 02:38:22;;;;;;;35.60;17.60;;;;;;;;;;4983400;28;20631;-85
2021/01/03 02:41:27;;;;;;;35.47;17.10;;;;;;;;;;4983125;28;20949;-87
2021/01/03 02:44:31;;;;;;;43.23;18.43;;;;;;;;;;5000495;28;20584;-87
2021/01/03 02:47:37;;;;;;;35.30;17.50;;;;;;;;;;5005894;28;20648;-87
2021/01/03 02:50:41;;;;;;;34.30;17.33;;;;;;;;;;4978262;28;20540;-85
2021/01/03 02:53:52;;;;;;;37.27;18.03;;;;;;;;;;5009009;28;20592;-85
2021/01/03 02:56:56;;;;;;;30.47;16.80;;;;;;;;;;4976943;28;20596;-88
2021/01/03 03:00:00;;;;;;;37.13;16.93;;;;;;;;;;4998925;28;20608;-86
2021/01/03 03:03:08;;;;;;;36.53;17.17;;;;;;;;;;4976206;28;20549;-83
2021/01/03 03:06:12;;;;;;;31.87;16.97;;;;;;;;;;5000428;28;20967;-85
2021/01/03 03:09:16;;;;;;;32.97;16.83;;;;;;;;;;4994978;28;20643;-83
2021/01/03 03:12:22;;;;;;;38.33;17.97;;;;;;;;;;4986187;28;20552;-84
2021/01/03 03:15:32;;;;;;;38.40;17.50;;;;;;;;;;4992264;28;20678;-83
2021/01/03 03:18:36;;;;;;;33.17;16.17;;;;;;;;;;4982836;28;20668;-84
2021/01/03 03:21:40;;;;;;;38.20;17.43;;;;;;;;;;4975183;28;20616;-85
2021/01/03 03:24:45;;;;;;;35.37;17.50;;;;;;;;;;4986563;28;21098;-84
2021/01/03 03:27:49;;;;;;;34.80;16.90;;;;;;;;;;4999026;28;20659;-85
2021/01/03 03:30:54;;;;;;;31.30;16.63;;;;;;;;;;4998197;28;20549;-85
2021/01/03 03:33:58;;;;;;;34.23;16.17;;;;;;;;;;4991968;28;20607;-85
2021/01/03 03:37:03;;;;;;;31.57;16.87;;;;;;;;;;4986266;28;20596;-87
2021/01/03 03:40:07;;;;;;;31.70;16.17;;;;;;;;;;4998351;28;20595;-83
2021/01/03 03:43:11;;;;;;;36.00;17.83;;;;;;;;;;4989096;28;20595;-83
2021/01/03 03:46:16;;;;;;;40.13;17.33;;;;;;;;;;5004887;28;20611;-85
2021/01/03 03:49:21;;;;;;;34.03;17.57;;;;;;;;;;4983418;28;20656;-84
2021/01/03 03:52:26;;;;;;;37.27;17.90;;;;;;;;;;5006341;28;20546;-83
2021/01/03 03:55:30;;;;;;;33.20;17.33;;;;;;;;;;4972029;28;20631;-83
2021/01/03 03:58:34;;;;;;;35.80;17.43;;;;;;;;;;4991195;28;21263;-83
2021/01/03 04:01:38;;;;;;;32.83;17.50;;;;;;;;;;4993418;28;21180;-83
2021/01/03 04:04:44;;;;;;;36.40;16.77;;;;;;;;;;4979119;28;20604;-85
2021/01/03 04:07:49;;;;;;;34.53;17.23;;;;;;;;;;4986328;28;20636;-85
2021/01/03 04:10:53;;;;;;;31.87;16.47;;;;;;;;;;4986462;28;20607;-86
2021/01/03 04:13:58;;;;;;;36.43;17.70;;;;;;;;;;4994720;28;20599;-84
2021/01/03 04:17:05;;;;;;;32.87;16.03;;;;;;;;;;5016616;28;20560;-86
2021/01/03 04:20:15;;;;;;;33.97;16.57;;;;;;;;;;4985391;28;20593;-85
2021/01/03 04:23:19;;;;;;;33.07;15.50;;;;;;;;;;4982671;28;20988;-85
2021/01/03 04:26:23;;;;;;;36.90;15.80;;;;;;;;;;4985999;28;20592;-87
2021/01/03 04:29:28;;;;;;;31.53;15.97;;;;;;;;;;4992695;28;20635;-83
2021/01/03 04:32:32;;;;;;;32.60;15.20;;;;;;;;;;4992033;28;20640;-85
2021/01/03 04:35:36;;;;;;;34.67;14.83;;;;;;;;;;4973431;28;21016;-83
2021/01/03 04:38:41;;;;;;;31.73;16.50;;;;;;;;;;4962642;28;20628;-83
2021/01/03 04:41:48;;;;;;;36.13;16.13;;;;;;;;;;4967451;28;20583;-86
2021/01/03 04:44:57;;;;;;;35.93;17.10;;;;;;;;;;4992110;28;20587;-84
2021/01/03 04:48:05;;;;;;;35.87;16.67;;;;;;;;;;4984222;28;20660;-85
2021/01/03 04:51:22;;;;;;;32.67;16.07;;;;;;;;;;4984232;28;20548;-85
2021/01/03 04:54:33;;;;;;;34.53;16.30;;;;;;;;;;4996797;28;20592;-85
2021/01/03 04:57:48;;;;;;;35.00;16.70;;;;;;;;;;5002564;28;20651;-85
2021/01/03 05:01:43;;;;;;;34.87;16.37;;;;;;;;;;4981428;28;20588;-85
2021/01/03 05:05:03;;;;;;;36.70;16.63;;;;;;;;;;4975762;28;20627;-85
2021/01/03 05:08:23;;;;;;;35.80;16.43;;;;;;;;;;4985437;28;20996;-83
2021/01/03 05:11:46;;;;;;;41.73;18.30;;;;;;;;;;4973330;28;20617;-86
2021/01/03 05:15:01;;;;;;;31.70;16.80;;;;;;;;;;4983950;28;21173;-84
2021/01/03 05:18:05;;;;;;;38.83;17.63;;;;;;;;;;4985204;28;20655;-86
2021/01/03 05:21:09;;;;;;;35.03;17.77;;;;;;;;;;4994840;28;20967;-85
2021/01/03 05:24:14;;;;;;;37.63;17.77;;;;;;;;;;4991225;28;20588;-87
2021/01/03 05:27:20;;;;;;;38.43;17.13;;;;;;;;;;4983442;28;20585;-84
2021/01/03 05:30:28;;;;;;;37.90;17.00;;;;;;;;;;4988568;28;20596;-87
2021/01/03 05:33:32;;;;;;;38.20;17.50;;;;;;;;;;5014804;28;20619;-87
2021/01/03 05:36:40;;;;;;;39.53;16.97;;;;;;;;;;4993937;28;20629;-87
2021/01/03 05:39:45;;;;;;;37.80;17.07;;;;;;;;;;4984344;28;20546;-85
2021/01/03 05:43:01;;;;;;;37.03;16.33;;;;;;;;;;4985091;28;20632;-87
2021/01/03 05:46:19;;;;;;;40.33;16.90;;;;;;;;;;4995787;28;20597;-84
2021/01/03 05:49:26;;;;;;;32.17;15.60;;;;;;;;;;4972998;28;20658;-85
2021/01/03 05:52:31;;;;;;;40.70;16.97;;;;;;;;;;5011306;28;20951;-86
2021/01/03 05:55:38;;;;;;;35.60;17.33;;;;;;;;;;5003284;28;20620;-83
2021/01/03 05:58:44;;;;;;;33.67;15.73;;;;;;;;;;5013864;28;20646;-83
2021/01/03 06:02:02;;;;;;;33.37;16.77;;;;;;;;;;4978389;28;20596;-83
2021/01/03 06:05:20;;;;;;;38.07;17.80;;;;;;;;;;4975458;28;20600;-83
2021/01/03 06:08:27;;;;;;;30.80;16.13;;;;;;;;;;4994855;28;20660;-83
2021/01/03 06:11:31;;;;;;;36.43;16.57;;;;;;;;;;4971908;28;20608;-83
2021/01/03 06:14:36;;;;;;;33.23;15.97;;;;;;;;;;4975609;28;20623;-83
2021/01/03 06:17:45;;;;;;;34.43;16.37;;;;;;;;;;4994881;28;21010;-84
2021/01/03 06:20:49;;;;;;;39.70;17.07;;;;;;;;;;4976363;28;20668;-83
2021/01/03 06:24:08;;;;;;;33.47;16.73;;;;;;;;;;4979659;28;20603;-83
2021/01/03 06:27:26;;;;;;;36.80;16.47;;;;;;;;;;4979617;28;20603;-84
2021/01/03 06:30:33;;;;;;;36.57;16.73;;;;;;;;;;4993906;28;20596;-83
2021/01/03 06:33:56;;;;;;;34.40;16.27;;;;;;;;;;4982904;28;20609;-83
2021/01/03 06:37:20;;;;;;;35.40;17.27;;;;;;;;;;4981784;28;20640;-83
2021/01/03 06:40:40;;;;;;;29.27;16.10;;;;;;;;;;4991100;28;20949;-83
2021/01/03 06:44:15;;;;;;;29.30;15.17;;;;;;;;;;4978191;28;20603;-83
2021/01/03 06:47:31;;;;;;;37.50;16.70;;;;;;;;;;5002412;28;20571;-83
2021/01/03 06:50:57;;;;;;;52.33;25.93;;;;;;;;;;5002346;28;20545;-83
2021/01/03 06:54:14;;;;;;;34.67;17.10;;;;;;;;;;5004946;28;20597;-83
2021/01/03 06:57:40;;;;;;;32.63;16.73;;;;;;;;;;4972711;28;20636;-83
2021/01/03 07:01:01;;;;;;;32.20;16.07;;;;;;;;;;4985598;28;20951;-83
2021/01/03 07:04:18;;;;;;;35.13;16.97;;;;;;;;;;5002327;28;20625;-83
2021/01/03 07:07:27;;;;;;;35.67;16.70;;;;;;;;;;4993668;28;20600;-83
2021/01/03 07:10:36;;;;;;;38.13;17.10;;;;;;;;;;4982505;28;20597;-83
2021/01/03 07:13:41;;;;;;;34.57;16.23;;;;;;;;;;4969615;28;21071;-83
2021/01/03 07:16:59;;;;;;;32.80;16.60;;;;;;;;;;5001714;28;21240;-83
2021/01/03 07:20:05;;;;;;;33.97;17.03;;;;;;;;;;4990992;28;20548;-83
2021/01/03 07:23:13;;;;;;;34.13;16.13;;;;;;;;;;4991230;28;20560;-84
2021/01/03 07:26:27;;;;;;;37.63;18.07;;;;;;;;;;5012895;28;20548;-83
2021/01/03 07:29:31;;;;;;;32.03;15.60;;;;;;;;;;4960017;28;20935;-84
2021/01/03 07:32:38;;;;;;;36.23;18.50;;;;;;;;;;4973494;28;20585;-83
2021/01/03 07:35:44;;;;;;;32.40;16.43;;;;;;;;;;4974922;28;20545;-84
2021/01/03 07:39:12;;;;;;;37.60;18.33;;;;;;;;;;4974366;28;20652;-85
2021/01/03 07:42:23;;;;;;;40.13;19.33;;;;;;;;;;4995193;28;20586;-84
2021/01/03 07:45:27;;;;;;;28.93;17.07;;;;;;;;;;5000718;28;20588;-84
2021/01/03 07:48:36;;;;;;;48.43;26.87;;;;;;;;;;4993116;28;20639;-83
2021/01/03 07:51:43;;;;;;;66.93;35.70;;;;;;;;;;5004046;28;20540;-83
2021/01/03 07:54:53;;;;;;;45.50;21.77;;;;;;;;;;4997230;28;20588;-83
2021/01/03 07:58:00;;;;;;;33.23;17.63;;;;;;;;;;4998402;28;21254;-84
2021/01/03 08:01:05;;;;;;;30.83;16.23;;;;;;;;;;5002305;28;20584;-83
2021/01/03 08:04:30;;;;;;;33.53;17.77;;;;;;;;;;5005353;28;20549;-83
2021/01/03 08:07:34;;;;;;;34.10;18.80;;;;;;;;;;5001528;28;20645;-83
2021/01/03 08:10:40;;;;;;;31.83;16.70;;;;;;;;;;4985615;28;20573;-84
2021/01/03 08:13:47;;;;;;;40.30;22.57;;;;;;;;;;4974185;28;20546;-84
2021/01/03 08:16:51;;;;;;;33.37;16.23;;;;;;;;;;4996342;28;20597;-83
2021/01/03 08:20:02;;;;;;;32.80;16.60;;;;;;;;;;4996263;28;20612;-85
2021/01/03 08:23:16;;;;;;;29.93;16.57;;;;;;;;;;5003837;28;20541;-84
2021/01/03 08:26:25;;;;;;;32.30;15.97;;;;;;;;;;4985833;28;20566;-84
2021/01/03 08:29:38;;;;;;;28.70;15.63;;;;;;;;;;4992391;28;20979;-85
2021/01/03 08:32:43;;;;;;;30.90;16.33;;;;;;;;;;5015625;28;20537;-84
2021/01/03 08:35:47;;;;;;;32.00;15.97;;;;;;;;;;4992029;28;20596;-85
2021/01/03 08:38:53;;;;;;;31.23;16.43;;;;;;;;;;4986433;28;20644;-84
2021/01/03 08:42:01;;;;;;;33.30;17.60;;;;;;;;;;4989385;28;20600;-84
2021/01/03 08:45:08;;;;;;;29.47;15.73;;;;;;;;;;4998967;28;20589;-84
2021/01/03 08:48:22;;;;;;;28.83;16.33;;;;;;;;;;4988721;28;20631;-85
2021/01/03 08:51:27;;;;;;;29.40;16.17;;;;;;;;;;4981520;28;20600;-84
2021/01/03 08:54:31;;;;;;;31.93;17.00;;;;;;;;;;4993944;28;20585;-84
2021/01/03 08:57:37;;;;;;;30.20;16.33;;;;;;;;;;4973090;28;20676;-86
2021/01/03 09:00:44;;;;;;;27.73;15.87;;;;;;;;;;4988138;28;20584;-85
2021/01/03 09:03:51;;;;;;;29.67;16.70;;;;;;;;;;5003799;28;20541;-84
2021/01/03 09:06:59;;;;;;;29.77;15.97;;;;;;;;;;4990324;28;20589;-84
2021/01/03 09:10:08;;;;;;;29.57;16.30;;;;;;;;;;4986667;28;20588;-86
2021/01/03 09:13:26;;;;;;;32.23;16.20;;;;;;;;;;4993880;28;20549;-86
2021/01/03 09:16:42;;;;;;;28.77;15.73;;;;;;;;;;4986026;28;20629;-84
2021/01/03 09:20:10;;;;;;;26.57;15.13;;;;;;;;;;4996841;28;20597;-86
2021/01/03 09:23:20;;;;;;;28.90;15.17;;;;;;;;;;4990403;28;20588;-84
2021/01/03 09:26:32;;;;;;;27.93;16.87;;;;;;;;;;5012443;28;20949;-84
2021/01/03 09:29:41;;;;;;;37.03;22.40;;;;;;;;;;5005338;28;21192;-84
2021/01/03 09:32:50;;;;;;;36.00;20.83;;;;;;;;;;4974823;28;20538;-86
2021/01/03 09:36:05;;;;;;;30.17;17.17;;;;;;;;;;4985184;28;20542;-85
2021/01/03 09:39:31;;;;;;;31.80;17.77;;;;;;;;;;5005408;28;20633;-85
2021/01/03 09:42:58;;;;;;;33.87;17.87;;;;;;;;;;5003506;28;20585;-86
2021/01/03 09:46:34;;;;;;;31.13;17.83;;;;;;;;;;5015225;28;21020;-86
2021/01/03 09:49:40;;;;;;;26.97;15.87;;;;;;;;;;4992886;28;20596;-86
2021/01/03 09:52:53;;;;;;;30.40;15.00;;;;;;;;;;5005528;28;20604;-86
2021/01/03 09:56:12;;;;;;;28.27;16.03;;;;;;;;;;5003368;28;20601;-86
2021/01/03 09:59:21;;;;;;;31.47;16.83;;;;;;;;;;4985802;28;20609;-85
2021/01/03 10:02:27;;;;;;;39.07;20.10;;;;;;;;;;4996563;28;20585;-86
2021/01/03 10:05:37;;;;;;;32.20;16.47;;;;;;;;;;4973965;28;20633;-86
2021/01/03 10:08:43;;;;;;;32.13;16.77;;;;;;;;;;4973489;28;20632;-85
2021/01/03 10:11:47;;;;;;;28.20;15.27;;;;;;;;;;4990214;28;20577;-83
2021/01/03 10:15:09;;;;;;;31.33;16.27;;;;;;;;;;5003674;28;20599;-84
2021/01/03 10:18:13;;;;;;;25.20;14.87;;;;;;;;;;5015983;28;20668;-86
2021/01/03 10:21:30;;;;;;;28.27;15.93;;;;;;;;;;5016765;28;20537;-85
2021/01/03 10:24:34;;;;;;;31.10;16.33;;;;;;;;;;5014977;28;20588;-86
2021/01/03 10:27:38;;;;;;;37.77;22.20;;;;;;;;;;5015506;28;20655;-86
2021/01/03 10:30:43;;;;;;;89.70;49.00;;;;;;;;;;4988517;28;20588;-86
2021/01/03 10:33:49;;;;;;;31.97;18.80;;;;;;;;;;4982851;28;20553;-86
2021/01/03 10:36:57;;;;;;;29.47;18.27;;;;;;;;;;4999245;28;20629;-86
2021/01/03 10:40:01;;;;;;;32.57;17.97;;;;;;;;;;4982660;28;20585;-86
2021/01/03 10:43:06;;;;;;;30.63;17.30;;;;;;;;;;4994461;28;21188;-86
2021/01/03 10:46:11;;;;;;;32.53;16.73;;;;;;;;;;4980136;28;20549;-86
2021/01/03 10:49:15;;;;;;;31.57;17.03;;;;;;;;;;5003208;28;20633;-87
2021/01/03 10:52:19;;;;;;;34.00;18.70;;;;;;;;;;4993790;28;20589;-84
2021/01/03 10:55:24;;;;;;;32.10;16.47;;;;;;;;;;4987223;28;20894;-84
2021/01/03 10:58:28;;;;;;;30.93;17.90;;;;;;;;;;4997719;28;21253;-84
2021/01/03 11:01:37;;;;;;;30.70;16.73;;;;;;;;;;4988512;28;20620;-86
2021/01/03 11:04:42;;;;;;;28.80;16.23;;;;;;;;;;4994226;28;20600;-85
2021/01/03 11:07:46;;;;;;;29.17;17.23;;;;;;;;;;4963293;28;20613;-84
2021/01/03 11:10:50;;;;;;;31.17;16.87;;;;;;;;;;4983009;28;20588;-84
2021/01/03 11:13:55;;;;;;;29.57;16.57;;;;;;;;;;4993691;28;20592;-84
2021/01/03 11:16:59;;;;;;;30.43;17.20;;;;;;;;;;5005067;28;20556;-84
2021/01/03 11:20:05;;;;;;;30.60;15.67;;;;;;;;;;4994309;28;20537;-83
2021/01/03 11:23:10;;;;;;;27.47;15.43;;;;;;;;;;4975698;28;20601;-84
2021/01/03 11:26:14;;;;;;;24.87;14.70;;;;;;;;;;5004769;28;21203;-84
2021/01/03 11:29:24;;;;;;;38.57;22.80;;;;;;;;;;5020775;23;20670;-83
2021/01/03 11:32:28;;;;;;;58.43;31.77;;;;;;;;;;5023324;28;20580;-83
2021/01/03 11:35:32;;;;;;;32.53;19.43;;;;;;;;;;4992451;28;20640;-82
2021/01/03 11:38:37;;;;;;;29.50;15.53;;;;;;;;;;4992092;28;20636;-82
2021/01/03 11:41:44;;;;;;;28.27;16.43;;;;;;;;;;4974002;28;20548;-84
2021/01/03 11:44:48;;;;;;;28.20;15.03;;;;;;;;;;4974230;28;20592;-84
2021/01/03 11:47:52;;;;;;;25.97;15.37;;;;;;;;;;4981685;28;20596;-86
2021/01/03 11:50:56;;;;;;;25.80;14.40;;;;;;;;;;4992843;28;20584;-86
2021/01/03 11:54:01;;;;;;;27.07;17.13;;;;;;;;;;4992840;28;20588;-87
2021/01/03 11:57:06;;;;;;;22.93;14.43;;;;;;;;;;4992929;28;20569;-88
2021/01/03 12:00:13;;;;;;;25.27;14.97;;;;;;;;;;4981459;28;20665;-87
2021/01/03 12:03:18;;;;;;;24.37;14.33;;;;;;;;;;4985161;28;20951;-87
2021/01/03 12:06:23;;;;;;;26.27;15.07;;;;;;;;;;4999742;28;20592;-87
2021/01/03 12:09:31;;;;;;;25.37;14.83;;;;;;;;;;4981168;28;21208;-87
2021/01/03 12:12:35;;;;;;;26.83;15.30;;;;;;;;;;4977587;28;20596;-87
2021/01/03 12:15:40;;;;;;;24.17;14.47;;;;;;;;;;4992781;28;21078;-87
2021/01/03 12:18:44;;;;;;;26.37;15.00;;;;;;;;;;4961434;28;20601;-88
2021/01/03 12:21:49;;;;;;;31.97;17.37;;;;;;;;;;4962172;28;20554;-88
2021/01/03 12:24:53;;;;;;;33.27;18.00;;;;;;;;;;4984021;28;20553;-88
2021/01/03 12:27:58;;;;;;;24.23;14.90;;;;;;;;;;4973089;28;20534;-89
2021/01/03 12:31:02;;;;;;;26.07;15.17;;;;;;;;;;4967660;28;20596;-88
2021/01/03 12:34:07;;;;;;;24.83;15.33;;;;;;;;;;4981543;28;20545;-88
2021/01/03 12:37:13;;;;;;;28.50;16.43;;;;;;;;;;5007210;28;20597;-89
2021/01/03 12:40:18;;;;;;;22.50;13.17;;;;;;;;;;4994583;28;20628;-89
2021/01/03 12:43:22;;;;;;;21.40;12.40;;;;;;;;;;5016018;28;20596;-87
2021/01/03 12:46:39;;;;;;;27.57;15.53;;;;;;;;;;4981017;28;20597;-88
2021/01/03 12:49:43;;;;;;;23.97;14.00;;;;;;;;;;5003674;28;20632;-87
2021/01/03 12:52:47;;;;;;;28.80;16.23;;;;;;;;;;4992299;28;20609;-87
2021/01/03 12:55:51;;;;;;;44.97;21.83;;;;;;;;;;5003232;28;20596;-86
2021/01/03 12:58:58;;;;;;;29.17;15.33;;;;;;;;;;4991593;28;21275;-87
2021/01/03 13:02:02;;;;;;;41.50;20.67;;;;;;;;;;4980619;28;20596;-87
2021/01/03 13:05:07;;;;;;;32.93;17.87;;;;;;;;;;4988608;28;20589;-87
2021/01/03 13:08:11;;;;;;;150.33;51.80;;;;;;;;;;4983873;28;20542;-87
2021/01/03 13:11:16;;;;;;;180.03;57.67;;;;;;;;;;4977562;28;20615;-87
2021/01/03 13:14:21;;;;;;;32.73;17.63;;;;;;;;;;4991027;28;20607;-86
2021/01/03 13:17:25;;;;;;;19.73;12.67;;;;;;;;;;4991311;28;20967;-86
2021/01/03 13:20:29;;;;;;;22.27;13.43;;;;;;;;;;4980317;28;20608;-87
2021/01/03 13:23:36;;;;;;;21.30;11.80;;;;;;;;;;5002534;28;21133;-86
2021/01/03 13:26:40;;;;;;;20.23;12.23;;;;;;;;;;4980307;28;21190;-88
2021/01/03 13:29:45;;;;;;;20.77;12.33;;;;;;;;;;5002126;28;20668;-87
2021/01/03 13:32:49;;;;;;;20.77;12.87;;;;;;;;;;4980170;28;20545;-88
2021/01/03 13:35:53;;;;;;;24.33;13.80;;;;;;;;;;4980183;28;20540;-87
2021/01/03 13:38:58;;;;;;;21.43;12.27;;;;;;;;;;5001951;28;20767;-87
2021/01/03 13:42:02;;;;;;;20.70;11.70;;;;;;;;;;4983001;28;20554;-87
2021/01/03 13:45:08;;;;;;;21.07;12.30;;;;;;;;;;4993217;28;20592;-88
2021/01/03 13:48:12;;;;;;;20.13;11.90;;;;;;;;;;4991087;28;20552;-87
2021/01/03 13:51:16;;;;;;;23.57;13.87;;;;;;;;;;4979593;28;20985;-88
2021/01/03 13:54:21;;;;;;;22.17;12.97;;;;;;;;;;4979575;28;20588;-84
2021/01/03 13:57:25;;;;;;;21.13;13.50;;;;;;;;;;4990213;28;20596;-85
2021/01/03 14:00:30;;;;;;;18.80;12.17;;;;;;;;;;4979899;28;20642;-85
2021/01/03 14:03:35;;;;;;;17.83;10.40;;;;;;;;;;4991074;28;20541;-85
2021/01/03 14:06:39;;;;;;;19.07;11.60;;;;;;;;;;4979676;28;20536;-85
2021/01/03 14:09:44;;;;;;;24.43;14.00;;;;;;;;;;5001556;28;20964;-85
2021/01/03 14:12:48;;;;;;;19.63;12.20;;;;;;;;;;4979446;28;20604;-85
2021/01/03 14:15:53;;;;;;;20.63;11.90;;;;;;;;;;5001718;28;20790;-85
2021/01/03 14:18:58;;;;;;;19.43;12.60;;;;;;;;;;5001360;28;20668;-85
2021/01/03 14:22:02;;;;;;;18.70;11.90;;;;;;;;;;4979542;28;20608;-85
2021/01/03 14:25:08;;;;;;;20.60;11.80;;;;;;;;;;5001584;28;20556;-85
2021/01/03 14:28:12;;;;;;;22.23;14.33;;;;;;;;;;4979379;28;20537;-85
2021/01/03 14:31:22;;;;;;;20.47;12.87;;;;;;;;;;4990308;28;20608;-85
2021/01/03 14:34:37;;;;;;;18.27;12.20;;;;;;;;;;4978911;28;20599;-85
2021/01/03 14:37:53;;;;;;;20.60;12.40;;;;;;;;;;5014392;28;20541;-85
2021/01/03 14:41:00;;;;;;;21.60;12.40;;;;;;;;;;4991356;28;20549;-85
2021/01/03 14:44:04;;;;;;;19.17;11.10;;;;;;;;;;5006397;28;20896;-85
2021/01/03 14:47:26;;;;;;;19.90;11.47;;;;;;;;;;5006447;28;20552;-85
2021/01/03 14:50:53;;;;;;;21.23;12.57;;;;;;;;;;4994978;28;20620;-85
2021/01/03 14:53:57;;;;;;;19.33;12.13;;;;;;;;;;5005695;28;20560;-83
2021/01/03 14:57:13;;;;;;;27.23;14.20;;;;;;;;;;4982857;28;20604;-82
2021/01/03 15:00:20;;;;;;;21.60;13.13;;;;;;;;;;5016868;28;20656;-81
2021/01/03 15:03:51;;;;;;;17.03;11.10;;;;;;;;;;5004723;28;20628;-85
2021/01/03 15:07:13;;;;;;;18.20;11.53;;;;;;;;;;4982932;28;20550;-85
2021/01/03 15:10:20;;;;;;;17.33;10.90;;;;;;;;;;4963195;28;20957;-85
2021/01/03 15:13:25;;;;;;;17.43;10.97;;;;;;;;;;4974352;28;20612;-85
2021/01/03 15:16:30;;;;;;;16.43;11.00;;;;;;;;;;4985704;28;21175;-85
2021/01/03 15:19:47;;;;;;;16.47;10.93;;;;;;;;;;4972426;28;20659;-84
2021/01/03 15:22:59;;;;;;;17.03;10.70;;;;;;;;;;4994144;28;21147;-85
2021/01/03 15:26:09;;;;;;;18.83;11.37;;;;;;;;;;4982787;28;20729;-85
2021/01/03 15:29:24;;;;;;;19.73;12.93;;;;;;;;;;4985211;28;20749;-84
2021/01/03 15:32:36;;;;;;;17.53;11.70;;;;;;;;;;4983867;28;21142;-85
2021/01/03 15:35:44;;;;;;;20.43;12.23;;;;;;;;;;5004992;28;20549;-85
2021/01/03 15:38:49;;;;;;;19.83;11.90;;;;;;;;;;4981708;28;20620;-85
2021/01/03 15:42:05;;;;;;;21.17;11.83;;;;;;;;;;4982609;28;20536;-85
2021/01/03 15:45:26;;;;;;;17.17;11.03;;;;;;;;;;5016597;28;20681;-85
2021/01/03 15:48:34;;;;;;;21.07;12.30;;;;;;;;;;5004211;28;20603;-85
2021/01/03 15:51:39;;;;;;;21.70;11.80;;;;;;;;;;4982614;28;20544;-85
2021/01/03 15:54:43;;;;;;;18.50;11.50;;;;;;;;;;5003077;28;20553;-85
2021/01/03 15:57:48;;;;;;;19.37;11.33;;;;;;;;;;5004289;28;20588;-85
2021/01/03 16:00:52;;;;;;;19.50;12.20;;;;;;;;;;5003797;28;20640;-85
2021/01/03 16:03:57;;;;;;;17.60;11.33;;;;;;;;;;5003733;28;20583;-85
2021/01/03 16:07:02;;;;;;;17.33;11.60;;;;;;;;;;4993138;28;20544;-85
2021/01/03 16:10:08;;;;;;;19.93;12.60;;;;;;;;;;4981645;28;21244;-87
2021/01/03 16:13:12;;;;;;;20.90;12.00;;;;;;;;;;4993059;28;20544;-86
2021/01/03 16:16:27;;;;;;;20.60;12.20;;;;;;;;;;4973416;28;20605;-86
2021/01/03 16:19:37;;;;;;;20.73;12.40;;;;;;;;;;4984554;28;20665;-86
2021/01/03 16:23:19;;;;;;;21.87;12.40;;;;;;;;;;4976894;28;20580;-87
2021/01/03 16:26:26;;;;;;;20.30;12.80;;;;;;;;;;5003549;28;20628;-87
2021/01/03 16:29:48;;;;;;;22.50;13.33;;;;;;;;;;5004699;28;20627;-87
2021/01/03 16:33:15;;;;;;;21.20;12.20;;;;;;;;;;4992935;28;20561;-87
2021/01/03 16:36:40;;;;;;;19.60;11.27;;;;;;;;;;4981050;28;20562;-87
2021/01/03 16:40:21;;;;;;;18.47;10.73;;;;;;;;;;4992071;28;20652;-87
2021/01/03 16:43:25;;;;;;;20.40;12.07;;;;;;;;;;4991972;28;20588;-87
2021/01/03 16:46:40;;;;;;;16.50;11.43;;;;;;;;;;4980251;28;20587;-86
2021/01/03 16:49:59;;;;;;;21.37;12.10;;;;;;;;;;5002297;28;20641;-86
2021/01/03 16:53:23;;;;;;;19.90;12.13;;;;;;;;;;4974687;28;20530;-87
2021/01/03 16:56:48;;;;;;;20.47;12.27;;;;;;;;;;4991477;28;20581;-87
2021/01/03 17:00:13;;;;;;;21.30;12.67;;;;;;;;;;5003020;28;21023;-87
2021/01/03 17:03:32;;;;;;;21.20;12.70;;;;;;;;;;4991796;28;20933;-86
2021/01/03 17:06:54;;;;;;;22.63;12.13;;;;;;;;;;4991665;28;20600;-87
2021/01/03 17:10:07;;;;;;;19.97;12.20;;;;;;;;;;5002617;28;20616;-87
2021/01/03 17:13:37;;;;;;;23.47;12.10;;;;;;;;;;4991360;28;20607;-87
2021/01/03 17:17:00;;;;;;;20.23;12.17;;;;;;;;;;5001446;28;20585;-87
2021/01/03 17:20:26;;;;;;;22.50;12.97;;;;;;;;;;5001788;28;20668;-86
2021/01/03 17:23:34;;;;;;;19.93;12.17;;;;;;;;;;5007299;28;20588;-86
2021/01/03 17:26:53;;;;;;;21.33;12.30;;;;;;;;;;4991892;28;20541;-87
2021/01/03 17:30:18;;;;;;;23.23;13.20;;;;;;;;;;4990916;28;20663;-87
2021/01/03 17:33:45;;;;;;;18.93;11.57;;;;;;;;;;5002021;28;20589;-87
2021/01/03 17:37:11;;;;;;;21.70;12.30;;;;;;;;;;4983070;28;20911;-87
2021/01/03 17:40:19;;;;;;;21.40;13.03;;;;;;;;;;4985419;28;20661;-87
2021/01/03 17:43:24;;;;;;;23.10;12.73;;;;;;;;;;5002009;28;20600;-87
2021/01/03 17:46:34;;;;;;;21.57;12.70;;;;;;;;;;4990989;28;20600;-87
2021/01/03 17:49:46;;;;;;;25.70;14.03;;;;;;;;;;4991095;28;20640;-88
2021/01/03 17:52:54;;;;;;;21.37;13.13;;;;;;;;;;5002199;28;20615;-87
2021/01/03 17:55:58;;;;;;;21.97;13.30;;;;;;;;;;4990924;28;20920;-87
2021/01/03 17:59:03;;;;;;;21.70;12.40;;;;;;;;;;5001498;28;20652;-87
2021/01/03 18:02:08;;;;;;;21.63;13.53;;;;;;;;;;4980009;28;20553;-87
2021/01/03 18:05:12;;;;;;;23.53;14.03;;;;;;;;;;4990595;28;20596;-87
2021/01/03 18:08:16;;;;;;;22.30;13.03;;;;;;;;;;4991406;28;20541;-87
2021/01/03 18:11:21;;;;;;;23.57;13.67;;;;;;;;;;4982576;28;20545;-86
2021/01/03 18:14:25;;;;;;;21.80;12.67;;;;;;;;;;4982399;28;20612;-86
2021/01/03 18:17:29;;;;;;;23.23;13.43;;;;;;;;;;4966793;28;20969;-87
2021/01/03 18:20:34;;;;;;;19.67;13.07;;;;;;;;;;4986966;28;20668;-87